sensor_id;sensor_type;location;lat;lon;timestamp;temperature;humidity
22996;DHT22;11664;49.774;8.650;2023-03-23T00:01:52;14.80;99.90
22996;DHT22;11664;49.774;8.650;2023-03-23T00:04:21;14.80;99.90
22996;DHT22;11664;49.774;8.650;2023-03-23T00:06:51;14.90;99.90
22996;DHT22;11664;49.774;8.650;2023-03-23T00:09:22;14.90;99.90
22996;DHT22;11664;49.774;8.650;2023-03-23T00:11:49;14.90;99.90
22996;DHT22;11664;49.774;8.650;2023-03-23T00:14:16;14.90;99.90
22996;DHT22;11664;49.774;8.650;2023-03-23T00:16:42;14.90;99.90
22996;DHT22;11664;49.774;8.650;2023-03-23T00:19:10;14.90;99.90
22996;DHT22;11664;49.774;8.650;2023-03-23T00:21:53;15.00;99.90
22996;DHT22;11664;49.774;8.650;2023-03-23T00:24:28;15.00;99.90
22996;DHT22;11664;49.774;8.650;2023-03-23T00:26:54;15.00;99.90
22996;DHT22;11664;49.774;8.650;2023-03-23T00:29:21;15.00;99.90
22996;DHT22;11664;49.774;8.650;2023-03-23T00:31:49;15.00;99.90
22996;DHT22;11664;49.774;8.650;2023-03-23T00:34:17;15.00;99.90
22996;DHT22;11664;49.774;8.650;2023-03-23T00:36:49;15.00;99.90
22996;DHT22;11664;49.774;8.650;2023-03-23T00:39:19;15.10;99.90
22996;DHT22;11664;49.774;8.650;2023-03-23T00:41:51;15.10;99.90
22996;DHT22;11664;49.774;8.650;2023-03-23T00:44:16;15.10;99.90
22996;DHT22;11664;49.774;8.650;2023-03-23T00:46:46;15.10;99.90
22996;DHT22;11664;49.774;8.650;2023-03-23T00:49:16;15.10;99.90
22996;DHT22;11664;49.774;8.650;2023-03-23T00:51:45;15.10;99.90
22996;DHT22;11664;49.774;8.650;2023-03-23T00:54:11;15.10;99.90
22996;DHT22;11664;49.774;8.650;2023-03-23T00:56:40;15.10;99.90
22996;DHT22;11664;49.774;8.650;2023-03-23T00:59:11;15.10;99.90
22996;DHT22;11664;49.774;8.650;2023-03-23T01:01:40;15.10;99.90
22996;DHT22;11664;49.774;8.650;2023-03-23T01:04:09;15.10;99.90
22996;DHT22;11664;49.774;8.650;2023-03-23T01:06:39;15.10;99.90
22996;DHT22;11664;49.774;8.650;2023-03-23T01:09:14;15.10;99.90
22996;DHT22;11664;49.774;8.650;2023-03-23T01:11:43;15.00;99.90
22996;DHT22;11664;49.774;8.650;2023-03-23T01:14:09;15.00;99.90
22996;DHT22;11664;49.774;8.650;2023-03-23T01:16:41;15.00;99.90
22996;DHT22;11664;49.774;8.650;2023-03-23T01:19:07;15.00;99.90
22996;DHT22;11664;49.774;8.650;2023-03-23T01:21:32;15.00;99.90
22996;DHT22;11664;49.774;8.650;2023-03-23T01:24:04;15.00;99.90
22996;DHT22;11664;49.774;8.650;2023-03-23T01:26:48;15.00;99.90
22996;DHT22;11664;49.774;8.650;2023-03-23T01:29:29;15.00;99.90
22996;DHT22;11664;49.774;8.650;2023-03-23T01:31:58;15.00;99.90
22996;DHT22;11664;49.774;8.650;2023-03-23T01:34:27;15.00;99.90
22996;DHT22;11664;49.774;8.650;2023-03-23T01:36:52;15.00;99.90
22996;DHT22;11664;49.774;8.650;2023-03-23T01:39:35;15.00;99.90
22996;DHT22;11664;49.774;8.650;2023-03-23T01:42:01;15.00;99.90
22996;DHT22;11664;49.774;8.650;2023-03-23T01:47:04;15.00;99.90
22996;DHT22;11664;49.774;8.650;2023-03-23T01:49:43;15.00;99.90
22996;DHT22;11664;49.774;8.650;2023-03-23T01:52:22;15.00;99.90
22996;DHT22;11664;49.774;8.650;2023-03-23T01:54:50;15.00;99.90
22996;DHT22;11664;49.774;8.650;2023-03-23T01:57:17;15.00;99.90
22996;DHT22;11664;49.774;8.650;2023-03-23T01:59:46;15.00;99.90
22996;DHT22;11664;49.774;8.650;2023-03-23T02:02:14;14.90;99.90
22996;DHT22;11664;49.774;8.650;2023-03-23T02:04:40;14.90;99.90
22996;DHT22;11664;49.774;8.650;2023-03-23T02:07:10;14.90;99.90
22996;DHT22;11664;49.774;8.650;2023-03-23T02:09:37;14.90;99.90
22996;DHT22;11664;49.774;8.650;2023-03-23T02:12:09;14.90;99.90
22996;DHT22;11664;49.774;8.650;2023-03-23T02:14:37;14.90;99.90
22996;DHT22;11664;49.774;8.650;2023-03-23T02:17:23;14.90;99.90
22996;DHT22;11664;49.774;8.650;2023-03-23T02:20:13;14.90;99.90
22996;DHT22;11664;49.774;8.650;2023-03-23T02:26:19;14.90;99.90
22996;DHT22;11664;49.774;8.650;2023-03-23T02:29:00;14.80;99.90
22996;DHT22;11664;49.774;8.650;2023-03-23T02:34:45;14.70;99.90
22996;DHT22;11664;49.774;8.650;2023-03-23T02:37:24;14.70;99.90
22996;DHT22;11664;49.774;8.650;2023-03-23T02:40:02;14.70;99.90
22996;DHT22;11664;49.774;8.650;2023-03-23T02:42:39;14.70;99.90
22996;DHT22;11664;49.774;8.650;2023-03-23T02:45:07;14.60;99.90
22996;DHT22;11664;49.774;8.650;2023-03-23T02:47:43;14.70;99.90
22996;DHT22;11664;49.774;8.650;2023-03-23T02:50:14;14.70;99.90
22996;DHT22;11664;49.774;8.650;2023-03-23T02:52:48;14.70;99.90
22996;DHT22;11664;49.774;8.650;2023-03-23T02:55:22;14.70;99.90
22996;DHT22;11664;49.774;8.650;2023-03-23T02:58:01;14.80;99.90
22996;DHT22;11664;49.774;8.650;2023-03-23T03:00:36;14.80;99.90
22996;DHT22;11664;49.774;8.650;2023-03-23T03:03:13;14.80;99.90
22996;DHT22;11664;49.774;8.650;2023-03-23T03:08:35;14.80;99.90
22996;DHT22;11664;49.774;8.650;2023-03-23T03:11:16;14.70;99.90
22996;DHT22;11664;49.774;8.650;2023-03-23T03:14:08;14.70;99.90
22996;DHT22;11664;49.774;8.650;2023-03-23T03:17:05;14.70;99.90
22996;DHT22;11664;49.774;8.650;2023-03-23T03:19:49;14.70;99.90
22996;DHT22;11664;49.774;8.650;2023-03-23T03:22:26;14.60;99.90
22996;DHT22;11664;49.774;8.650;2023-03-23T03:24:56;14.60;99.90
22996;DHT22;11664;49.774;8.650;2023-03-23T03:27:23;14.60;99.90
22996;DHT22;11664;49.774;8.650;2023-03-23T03:29:55;14.60;99.90
22996;DHT22;11664;49.774;8.650;2023-03-23T03:32:29;14.50;99.90
22996;DHT22;11664;49.774;8.650;2023-03-23T03:35:03;14.60;99.90
22996;DHT22;11664;49.774;8.650;2023-03-23T03:37:36;14.60;99.90
22996;DHT22;11664;49.774;8.650;2023-03-23T03:40:21;14.60;99.90
22996;DHT22;11664;49.774;8.650;2023-03-23T03:42:50;14.70;99.90
22996;DHT22;11664;49.774;8.650;2023-03-23T03:45:19;14.70;99.90
22996;DHT22;11664;49.774;8.650;2023-03-23T03:47:51;14.70;99.90
22996;DHT22;11664;49.774;8.650;2023-03-23T03:50:20;14.70;99.90
22996;DHT22;11664;49.774;8.650;2023-03-23T03:52:52;14.70;99.90
22996;DHT22;11664;49.774;8.650;2023-03-23T03:55:27;14.70;99.90
22996;DHT22;11664;49.774;8.650;2023-03-23T03:57:56;14.70;99.90
22996;DHT22;11664;49.774;8.650;2023-03-23T04:00:25;14.70;99.90
22996;DHT22;11664;49.774;8.650;2023-03-23T04:02:54;14.70;99.90
22996;DHT22;11664;49.774;8.650;2023-03-23T04:05:23;14.80;99.90
22996;DHT22;11664;49.774;8.650;2023-03-23T04:11:12;14.90;99.90
22996;DHT22;11664;49.774;8.650;2023-03-23T04:13:39;15.00;99.90
22996;DHT22;11664;49.774;8.650;2023-03-23T04:16:17;14.90;99.90
22996;DHT22;11664;49.774;8.650;2023-03-23T04:18:46;15.00;99.90
22996;DHT22;11664;49.774;8.650;2023-03-23T04:21:13;15.00;99.90
22996;DHT22;11664;49.774;8.650;2023-03-23T04:23:45;15.00;99.90
22996;DHT22;11664;49.774;8.650;2023-03-23T04:26:13;15.00;99.90
22996;DHT22;11664;49.774;8.650;2023-03-23T04:28:55;15.00;99.90
22996;DHT22;11664;49.774;8.650;2023-03-23T04:31:22;15.00;99.90
22996;DHT22;11664;49.774;8.650;2023-03-23T04:33:50;14.90;99.90
22996;DHT22;11664;49.774;8.650;2023-03-23T04:36:26;14.90;99.90
22996;DHT22;11664;49.774;8.650;2023-03-23T04:38:51;14.90;99.90
22996;DHT22;11664;49.774;8.650;2023-03-23T04:41:23;14.90;99.90
22996;DHT22;11664;49.774;8.650;2023-03-23T04:43:49;14.80;99.90
22996;DHT22;11664;49.774;8.650;2023-03-23T04:46:20;14.80;99.90
22996;DHT22;11664;49.774;8.650;2023-03-23T04:48:49;14.70;99.90
22996;DHT22;11664;49.774;8.650;2023-03-23T04:51:21;14.70;99.90
22996;DHT22;11664;49.774;8.650;2023-03-23T04:53:55;14.60;99.90
22996;DHT22;11664;49.774;8.650;2023-03-23T04:56:21;14.60;99.90
22996;DHT22;11664;49.774;8.650;2023-03-23T04:58:50;14.50;99.90
22996;DHT22;11664;49.774;8.650;2023-03-23T05:01:15;14.50;99.90
22996;DHT22;11664;49.774;8.650;2023-03-23T05:03:51;14.50;99.90
22996;DHT22;11664;49.774;8.650;2023-03-23T05:06:38;14.40;99.90
22996;DHT22;11664;49.774;8.650;2023-03-23T05:09:03;14.40;99.90
22996;DHT22;11664;49.774;8.650;2023-03-23T05:11:30;14.40;99.90
22996;DHT22;11664;49.774;8.650;2023-03-23T05:13:55;14.30;99.90
22996;DHT22;11664;49.774;8.650;2023-03-23T05:16:21;14.30;99.90
22996;DHT22;11664;49.774;8.650;2023-03-23T05:18:49;14.30;99.90
22996;DHT22;11664;49.774;8.650;2023-03-23T05:21:15;14.30;99.90
22996;DHT22;11664;49.774;8.650;2023-03-23T05:23:46;14.30;99.90
22996;DHT22;11664;49.774;8.650;2023-03-23T05:26:18;14.20;99.90
22996;DHT22;11664;49.774;8.650;2023-03-23T05:28:53;14.20;99.90
22996;DHT22;11664;49.774;8.650;2023-03-23T05:31:19;14.20;99.90
22996;DHT22;11664;49.774;8.650;2023-03-23T05:33:45;14.20;99.90
22996;DHT22;11664;49.774;8.650;2023-03-23T05:36:11;14.20;99.90
22996;DHT22;11664;49.774;8.650;2023-03-23T05:38:41;14.10;99.90
22996;DHT22;11664;49.774;8.650;2023-03-23T05:41:26;14.10;99.90
22996;DHT22;11664;49.774;8.650;2023-03-23T05:44:03;14.10;99.90
22996;DHT22;11664;49.774;8.650;2023-03-23T05:46:29;14.10;99.90
22996;DHT22;11664;49.774;8.650;2023-03-23T05:48:54;14.10;99.90
22996;DHT22;11664;49.774;8.650;2023-03-23T05:51:20;14.00;99.90
22996;DHT22;11664;49.774;8.650;2023-03-23T05:53:53;14.10;99.90
22996;DHT22;11664;49.774;8.650;2023-03-23T05:56:18;14.10;99.90
22996;DHT22;11664;49.774;8.650;2023-03-23T05:58:54;14.00;99.90
22996;DHT22;11664;49.774;8.650;2023-03-23T06:01:23;14.00;99.90
22996;DHT22;11664;49.774;8.650;2023-03-23T06:03:58;14.00;99.90
22996;DHT22;11664;49.774;8.650;2023-03-23T06:06:30;14.00;99.90
22996;DHT22;11664;49.774;8.650;2023-03-23T06:08:57;13.90;99.90
22996;DHT22;11664;49.774;8.650;2023-03-23T06:11:24;13.90;99.90
22996;DHT22;11664;49.774;8.650;2023-03-23T06:13:57;13.90;99.90
22996;DHT22;11664;49.774;8.650;2023-03-23T06:16:23;13.90;99.90
22996;DHT22;11664;49.774;8.650;2023-03-23T06:18:52;13.80;99.90
22996;DHT22;11664;49.774;8.650;2023-03-23T06:21:22;13.80;99.90
22996;DHT22;11664;49.774;8.650;2023-03-23T06:23:53;13.80;99.90
22996;DHT22;11664;49.774;8.650;2023-03-23T06:26:25;13.80;99.90
22996;DHT22;11664;49.774;8.650;2023-03-23T06:28:57;13.80;99.90
22996;DHT22;11664;49.774;8.650;2023-03-23T06:31:27;13.70;99.90
22996;DHT22;11664;49.774;8.650;2023-03-23T06:33:59;13.70;99.90
22996;DHT22;11664;49.774;8.650;2023-03-23T06:36:36;13.70;99.90
22996;DHT22;11664;49.774;8.650;2023-03-23T06:39:03;13.70;99.90
22996;DHT22;11664;49.774;8.650;2023-03-23T06:41:34;13.70;99.90
22996;DHT22;11664;49.774;8.650;2023-03-23T06:44:03;13.70;99.90
22996;DHT22;11664;49.774;8.650;2023-03-23T06:46:29;13.70;99.90
22996;DHT22;11664;49.774;8.650;2023-03-23T06:48:58;13.70;99.90
22996;DHT22;11664;49.774;8.650;2023-03-23T06:51:26;13.70;99.90
22996;DHT22;11664;49.774;8.650;2023-03-23T06:53:52;13.60;99.90
22996;DHT22;11664;49.774;8.650;2023-03-23T06:56:20;13.60;99.90
22996;DHT22;11664;49.774;8.650;2023-03-23T06:58:52;13.60;99.90
22996;DHT22;11664;49.774;8.650;2023-03-23T07:01:27;13.50;99.90
22996;DHT22;11664;49.774;8.650;2023-03-23T07:03:54;13.50;99.90
22996;DHT22;11664;49.774;8.650;2023-03-23T07:06:21;13.50;99.90
22996;DHT22;11664;49.774;8.650;2023-03-23T07:08:53;13.40;99.90
22996;DHT22;11664;49.774;8.650;2023-03-23T07:11:22;13.40;99.90
22996;DHT22;11664;49.774;8.650;2023-03-23T07:13:53;13.40;99.90
22996;DHT22;11664;49.774;8.650;2023-03-23T07:16:22;13.40;99.90
22996;DHT22;11664;49.774;8.650;2023-03-23T07:18:51;13.50;99.90
22996;DHT22;11664;49.774;8.650;2023-03-23T07:21:16;13.50;99.90
22996;DHT22;11664;49.774;8.650;2023-03-23T07:23:45;13.60;99.90
22996;DHT22;11664;49.774;8.650;2023-03-23T07:26:18;13.60;99.90
22996;DHT22;11664;49.774;8.650;2023-03-23T07:29:05;13.70;99.90
22996;DHT22;11664;49.774;8.650;2023-03-23T07:31:32;13.70;99.90
22996;DHT22;11664;49.774;8.650;2023-03-23T07:33:57;13.60;99.90
22996;DHT22;11664;49.774;8.650;2023-03-23T07:36:32;13.70;99.90
22996;DHT22;11664;49.774;8.650;2023-03-23T07:38:58;13.60;99.90
22996;DHT22;11664;49.774;8.650;2023-03-23T07:41:24;13.60;99.90
22996;DHT22;11664;49.774;8.650;2023-03-23T07:43:52;13.60;99.90
22996;DHT22;11664;49.774;8.650;2023-03-23T07:46:27;13.60;99.90
22996;DHT22;11664;49.774;8.650;2023-03-23T07:49:06;13.60;99.90
22996;DHT22;11664;49.774;8.650;2023-03-23T07:51:45;13.60;99.90
22996;DHT22;11664;49.774;8.650;2023-03-23T07:54:11;13.60;99.90
22996;DHT22;11664;49.774;8.650;2023-03-23T07:56:37;13.60;99.90
22996;DHT22;11664;49.774;8.650;2023-03-23T07:59:05;13.60;99.90
22996;DHT22;11664;49.774;8.650;2023-03-23T08:01:38;13.60;99.90
22996;DHT22;11664;49.774;8.650;2023-03-23T08:04:08;13.50;99.90
22996;DHT22;11664;49.774;8.650;2023-03-23T08:06:35;13.60;99.90
22996;DHT22;11664;49.774;8.650;2023-03-23T08:09:06;13.50;99.90
22996;DHT22;11664;49.774;8.650;2023-03-23T08:11:37;13.50;99.90
22996;DHT22;11664;49.774;8.650;2023-03-23T08:14:06;13.60;99.90
22996;DHT22;11664;49.774;8.650;2023-03-23T08:16:44;13.60;99.90
22996;DHT22;11664;49.774;8.650;2023-03-23T08:19:09;13.60;99.90
22996;DHT22;11664;49.774;8.650;2023-03-23T08:21:35;13.60;99.90
22996;DHT22;11664;49.774;8.650;2023-03-23T08:24:01;13.60;99.90
22996;DHT22;11664;49.774;8.650;2023-03-23T08:26:44;13.60;99.90
22996;DHT22;11664;49.774;8.650;2023-03-23T08:29:13;13.60;99.90
22996;DHT22;11664;49.774;8.650;2023-03-23T08:31:45;13.60;99.90
22996;DHT22;11664;49.774;8.650;2023-03-23T08:34:12;13.60;99.90
22996;DHT22;11664;49.774;8.650;2023-03-23T08:36:41;13.60;99.90
22996;DHT22;11664;49.774;8.650;2023-03-23T08:39:09;13.60;99.90
22996;DHT22;11664;49.774;8.650;2023-03-23T08:41:35;13.60;99.90
22996;DHT22;11664;49.774;8.650;2023-03-23T08:44:07;13.50;99.90
22996;DHT22;11664;49.774;8.650;2023-03-23T08:46:36;13.60;99.90
22996;DHT22;11664;49.774;8.650;2023-03-23T08:49:05;13.60;99.90
22996;DHT22;11664;49.774;8.650;2023-03-23T08:51:37;13.60;99.90
22996;DHT22;11664;49.774;8.650;2023-03-23T08:54:05;13.60;99.90
22996;DHT22;11664;49.774;8.650;2023-03-23T08:56:32;13.60;99.90
22996;DHT22;11664;49.774;8.650;2023-03-23T08:59:07;13.60;99.90
22996;DHT22;11664;49.774;8.650;2023-03-23T09:01:36;13.70;99.90
22996;DHT22;11664;49.774;8.650;2023-03-23T09:04:09;13.60;99.90
22996;DHT22;11664;49.774;8.650;2023-03-23T09:06:41;13.60;99.90
22996;DHT22;11664;49.774;8.650;2023-03-23T09:09:06;13.50;99.90
22996;DHT22;11664;49.774;8.650;2023-03-23T09:11:38;13.60;99.90
22996;DHT22;11664;49.774;8.650;2023-03-23T09:14:07;13.50;99.90
22996;DHT22;11664;49.774;8.650;2023-03-23T09:16:34;13.60;99.90
22996;DHT22;11664;49.774;8.650;2023-03-23T09:19:06;13.60;99.90
22996;DHT22;11664;49.774;8.650;2023-03-23T09:21:56;13.60;99.90
22996;DHT22;11664;49.774;8.650;2023-03-23T09:24:28;13.60;99.90
22996;DHT22;11664;49.774;8.650;2023-03-23T09:26:53;13.60;99.90
22996;DHT22;11664;49.774;8.650;2023-03-23T09:29:26;13.60;99.90
22996;DHT22;11664;49.774;8.650;2023-03-23T09:31:54;13.70;99.90
22996;DHT22;11664;49.774;8.650;2023-03-23T09:34:19;13.70;99.90
22996;DHT22;11664;49.774;8.650;2023-03-23T09:36:49;13.80;99.90
22996;DHT22;11664;49.774;8.650;2023-03-23T09:39:30;13.80;99.90
22996;DHT22;11664;49.774;8.650;2023-03-23T09:42:12;13.90;99.90
22996;DHT22;11664;49.774;8.650;2023-03-23T09:50:28;14.20;99.90
22996;DHT22;11664;49.774;8.650;2023-03-23T09:53:22;14.30;99.90
22996;DHT22;11664;49.774;8.650;2023-03-23T09:55:56;14.30;99.90
22996;DHT22;11664;49.774;8.650;2023-03-23T09:58:36;14.30;99.90
22996;DHT22;11664;49.774;8.650;2023-03-23T10:01:23;14.20;99.90
22996;DHT22;11664;49.774;8.650;2023-03-23T10:07:17;14.30;99.90
22996;DHT22;11664;49.774;8.650;2023-03-23T10:09:58;14.40;99.90
22996;DHT22;11664;49.774;8.650;2023-03-23T10:12:40;14.60;99.90
22996;DHT22;11664;49.774;8.650;2023-03-23T10:15:27;14.60;99.90
22996;DHT22;11664;49.774;8.650;2023-03-23T10:20:53;14.90;99.90
22996;DHT22;11664;49.774;8.650;2023-03-23T10:25:52;14.80;99.90
22996;DHT22;11664;49.774;8.650;2023-03-23T10:28:32;14.70;99.90
22996;DHT22;11664;49.774;8.650;2023-03-23T10:31:00;14.50;99.90
22996;DHT22;11664;49.774;8.650;2023-03-23T10:33:52;14.60;99.90
22996;DHT22;11664;49.774;8.650;2023-03-23T10:36:26;14.70;99.90
22996;DHT22;11664;49.774;8.650;2023-03-23T10:41:43;14.60;99.90
22996;DHT22;11664;49.774;8.650;2023-03-23T10:44:24;14.60;99.90
22996;DHT22;11664;49.774;8.650;2023-03-23T10:47:00;14.60;99.90
22996;DHT22;11664;49.774;8.650;2023-03-23T10:49:30;14.50;99.90
22996;DHT22;11664;49.774;8.650;2023-03-23T10:55:18;14.30;99.90
22996;DHT22;11664;49.774;8.650;2023-03-23T10:58:00;14.20;99.90
22996;DHT22;11664;49.774;8.650;2023-03-23T11:00:27;14.10;99.90
22996;DHT22;11664;49.774;8.650;2023-03-23T11:05:45;13.90;99.90
22996;DHT22;11664;49.774;8.650;2023-03-23T11:08:22;13.90;99.90
22996;DHT22;11664;49.774;8.650;2023-03-23T11:10:57;13.90;99.90
22996;DHT22;11664;49.774;8.650;2023-03-23T11:13:40;13.90;99.90
22996;DHT22;11664;49.774;8.650;2023-03-23T11:16:08;13.90;99.90
22996;DHT22;11664;49.774;8.650;2023-03-23T11:18:42;14.00;99.90
22996;DHT22;11664;49.774;8.650;2023-03-23T11:21:14;14.00;99.90
22996;DHT22;11664;49.774;8.650;2023-03-23T11:23:49;14.10;99.90
22996;DHT22;11664;49.774;8.650;2023-03-23T11:26:23;14.20;99.90
22996;DHT22;11664;49.774;8.650;2023-03-23T11:29:03;14.30;99.90
22996;DHT22;11664;49.774;8.650;2023-03-23T11:31:47;14.30;99.90
22996;DHT22;11664;49.774;8.650;2023-03-23T11:34:44;14.30;99.90
22996;DHT22;11664;49.774;8.650;2023-03-23T11:37:34;14.30;99.90
22996;DHT22;11664;49.774;8.650;2023-03-23T11:43:00;14.30;99.90
22996;DHT22;11664;49.774;8.650;2023-03-23T11:51:52;14.30;99.90
22996;DHT22;11664;49.774;8.650;2023-03-23T11:54:29;14.40;99.90
22996;DHT22;11664;49.774;8.650;2023-03-23T11:57:09;14.30;99.90
22996;DHT22;11664;49.774;8.650;2023-03-23T11:59:37;14.30;99.90
22996;DHT22;11664;49.774;8.650;2023-03-23T12:05:22;14.20;99.90
22996;DHT22;11664;49.774;8.650;2023-03-23T12:08:09;14.20;99.90
22996;DHT22;11664;49.774;8.650;2023-03-23T12:11:11;14.20;99.90
22996;DHT22;11664;49.774;8.650;2023-03-23T12:22:42;14.10;99.90
22996;DHT22;11664;49.774;8.650;2023-03-23T12:51:36;15.40;99.90
22996;DHT22;11664;49.774;8.650;2023-03-23T12:57:08;15.40;99.90
22996;DHT22;11664;49.774;8.650;2023-03-23T13:03:16;15.40;99.90
22996;DHT22;11664;49.774;8.650;2023-03-23T13:06:04;15.30;99.90
22996;DHT22;11664;49.774;8.650;2023-03-23T13:08:50;15.30;99.90
22996;DHT22;11664;49.774;8.650;2023-03-23T13:11:53;15.20;99.90
22996;DHT22;11664;49.774;8.650;2023-03-23T13:17:59;15.00;99.90
22996;DHT22;11664;49.774;8.650;2023-03-23T13:23:37;14.90;99.90
22996;DHT22;11664;49.774;8.650;2023-03-23T13:26:09;14.90;99.90
22996;DHT22;11664;49.774;8.650;2023-03-23T13:31:33;14.80;99.90
22996;DHT22;11664;49.774;8.650;2023-03-23T13:34:10;14.90;99.90
22996;DHT22;11664;49.774;8.650;2023-03-23T13:37:10;14.90;99.90
22996;DHT22;11664;49.774;8.650;2023-03-23T13:40:24;14.80;99.90
22996;DHT22;11664;49.774;8.650;2023-03-23T13:42:56;14.90;99.90
22996;DHT22;11664;49.774;8.650;2023-03-23T13:48:23;14.90;99.90
22996;DHT22;11664;49.774;8.650;2023-03-23T13:51:21;15.00;99.90
22996;DHT22;11664;49.774;8.650;2023-03-23T13:56:40;15.20;99.90
22996;DHT22;11664;49.774;8.650;2023-03-23T14:02:21;15.30;99.90
22996;DHT22;11664;49.774;8.650;2023-03-23T14:04:52;15.30;99.90
22996;DHT22;11664;49.774;8.650;2023-03-23T14:07:23;15.30;99.90
22996;DHT22;11664;49.774;8.650;2023-03-23T14:09:52;15.30;99.90
22996;DHT22;11664;49.774;8.650;2023-03-23T14:12:30;15.20;99.90
22996;DHT22;11664;49.774;8.650;2023-03-23T14:15:12;15.20;99.90
22996;DHT22;11664;49.774;8.650;2023-03-23T14:17:44;15.20;99.90
22996;DHT22;11664;49.774;8.650;2023-03-23T14:20:33;15.20;99.90
22996;DHT22;11664;49.774;8.650;2023-03-23T14:23:00;15.10;99.90
22996;DHT22;11664;49.774;8.650;2023-03-23T14:25:42;15.10;99.90
22996;DHT22;11664;49.774;8.650;2023-03-23T14:28:23;15.20;99.90
22996;DHT22;11664;49.774;8.650;2023-03-23T14:30:53;15.20;99.90
22996;DHT22;11664;49.774;8.650;2023-03-23T14:33:25;15.20;99.90
22996;DHT22;11664;49.774;8.650;2023-03-23T14:35:52;15.20;99.90
22996;DHT22;11664;49.774;8.650;2023-03-23T14:38:23;15.30;99.90
22996;DHT22;11664;49.774;8.650;2023-03-23T14:40:52;15.40;99.90
22996;DHT22;11664;49.774;8.650;2023-03-23T14:43:21;15.40;99.90
22996;DHT22;11664;49.774;8.650;2023-03-23T14:45:52;15.40;99.90
22996;DHT22;11664;49.774;8.650;2023-03-23T14:48:20;15.50;99.90
22996;DHT22;11664;49.774;8.650;2023-03-23T14:51:05;15.50;99.90
22996;DHT22;11664;49.774;8.650;2023-03-23T14:53:39;15.40;99.90
22996;DHT22;11664;49.774;8.650;2023-03-23T14:56:13;15.40;99.90
22996;DHT22;11664;49.774;8.650;2023-03-23T14:58:44;15.30;99.90
22996;DHT22;11664;49.774;8.650;2023-03-23T15:01:11;15.30;99.90
22996;DHT22;11664;49.774;8.650;2023-03-23T15:04:09;15.40;99.90
22996;DHT22;11664;49.774;8.650;2023-03-23T15:06:38;15.40;99.90
22996;DHT22;11664;49.774;8.650;2023-03-23T15:09:15;15.40;99.90
22996;DHT22;11664;49.774;8.650;2023-03-23T15:12:06;15.50;99.90
22996;DHT22;11664;49.774;8.650;2023-03-23T15:14:46;15.50;99.90
22996;DHT22;11664;49.774;8.650;2023-03-23T15:17:30;15.50;99.90
22996;DHT22;11664;49.774;8.650;2023-03-23T15:20:26;15.60;99.90
22996;DHT22;11664;49.774;8.650;2023-03-23T15:23:13;15.60;99.90
22996;DHT22;11664;49.774;8.650;2023-03-23T15:25:53;15.70;99.90
22996;DHT22;11664;49.774;8.650;2023-03-23T15:28:22;15.80;99.90
22996;DHT22;11664;49.774;8.650;2023-03-23T15:30:54;15.80;99.90
22996;DHT22;11664;49.774;8.650;2023-03-23T15:33:21;15.80;99.90
22996;DHT22;11664;49.774;8.650;2023-03-23T15:35:52;15.80;99.90
22996;DHT22;11664;49.774;8.650;2023-03-23T15:38:32;15.70;99.90
22996;DHT22;11664;49.774;8.650;2023-03-23T15:41:01;15.70;99.90
22996;DHT22;11664;49.774;8.650;2023-03-23T15:43:55;15.70;99.90
22996;DHT22;11664;49.774;8.650;2023-03-23T15:46:27;15.60;99.90
22996;DHT22;11664;49.774;8.650;2023-03-23T15:51:30;15.40;99.90
22996;DHT22;11664;49.774;8.650;2023-03-23T15:53:56;15.30;99.90
22996;DHT22;11664;49.774;8.650;2023-03-23T15:56:34;15.20;99.90
22996;DHT22;11664;49.774;8.650;2023-03-23T15:59:09;15.20;99.90
22996;DHT22;11664;49.774;8.650;2023-03-23T16:01:38;15.20;99.90
22996;DHT22;11664;49.774;8.650;2023-03-23T16:04:30;15.20;99.90
22996;DHT22;11664;49.774;8.650;2023-03-23T16:06:59;15.30;99.90
22996;DHT22;11664;49.774;8.650;2023-03-23T16:09:44;15.20;99.90
22996;DHT22;11664;49.774;8.650;2023-03-23T16:12:16;15.10;99.90
22996;DHT22;11664;49.774;8.650;2023-03-23T16:14:45;15.10;99.90
22996;DHT22;11664;49.774;8.650;2023-03-23T16:17:16;15.00;99.90
22996;DHT22;11664;49.774;8.650;2023-03-23T16:19:42;15.00;99.90
22996;DHT22;11664;49.774;8.650;2023-03-23T16:22:20;15.00;99.90
22996;DHT22;11664;49.774;8.650;2023-03-23T16:24:46;14.90;99.90
22996;DHT22;11664;49.774;8.650;2023-03-23T16:27:14;14.90;99.90
22996;DHT22;11664;49.774;8.650;2023-03-23T16:29:46;14.90;99.90
22996;DHT22;11664;49.774;8.650;2023-03-23T16:32:18;14.90;99.90
22996;DHT22;11664;49.774;8.650;2023-03-23T16:34:43;14.80;99.90
22996;DHT22;11664;49.774;8.650;2023-03-23T16:37:10;14.80;99.90
22996;DHT22;11664;49.774;8.650;2023-03-23T16:39:39;14.80;99.90
22996;DHT22;11664;49.774;8.650;2023-03-23T16:42:04;14.70;99.90
22996;DHT22;11664;49.774;8.650;2023-03-23T16:44:36;14.70;99.90
22996;DHT22;11664;49.774;8.650;2023-03-23T16:47:08;14.60;99.90
22996;DHT22;11664;49.774;8.650;2023-03-23T16:49:33;14.60;99.90
22996;DHT22;11664;49.774;8.650;2023-03-23T16:51:59;14.60;99.90
22996;DHT22;11664;49.774;8.650;2023-03-23T16:54:31;14.60;99.90
22996;DHT22;11664;49.774;8.650;2023-03-23T16:57:11;14.50;99.90
22996;DHT22;11664;49.774;8.650;2023-03-23T16:59:42;14.50;99.90
22996;DHT22;11664;49.774;8.650;2023-03-23T17:02:20;14.50;99.90
22996;DHT22;11664;49.774;8.650;2023-03-23T17:04:57;14.40;99.90
22996;DHT22;11664;49.774;8.650;2023-03-23T17:07:29;14.40;99.90
22996;DHT22;11664;49.774;8.650;2023-03-23T17:10:09;14.40;99.90
22996;DHT22;11664;49.774;8.650;2023-03-23T17:12:35;14.40;99.90
22996;DHT22;11664;49.774;8.650;2023-03-23T17:15:05;14.30;99.90
22996;DHT22;11664;49.774;8.650;2023-03-23T17:17:35;14.30;99.90
22996;DHT22;11664;49.774;8.650;2023-03-23T17:20:07;14.30;99.90
22996;DHT22;11664;49.774;8.650;2023-03-23T17:22:35;14.20;99.90
22996;DHT22;11664;49.774;8.650;2023-03-23T17:25:04;14.20;99.90
22996;DHT22;11664;49.774;8.650;2023-03-23T17:27:30;14.20;99.90
22996;DHT22;11664;49.774;8.650;2023-03-23T17:30:09;14.10;99.90
22996;DHT22;11664;49.774;8.650;2023-03-23T17:32:37;14.10;99.90
22996;DHT22;11664;49.774;8.650;2023-03-23T17:35:04;14.10;99.90
22996;DHT22;11664;49.774;8.650;2023-03-23T17:37:30;14.10;99.90
22996;DHT22;11664;49.774;8.650;2023-03-23T17:39:55;14.00;99.90
22996;DHT22;11664;49.774;8.650;2023-03-23T17:42:30;14.00;99.90
22996;DHT22;11664;49.774;8.650;2023-03-23T17:45:02;14.00;99.90
22996;DHT22;11664;49.774;8.650;2023-03-23T17:47:38;13.90;99.90
22996;DHT22;11664;49.774;8.650;2023-03-23T17:50:22;13.90;99.90
22996;DHT22;11664;49.774;8.650;2023-03-23T17:52:48;14.00;99.90
22996;DHT22;11664;49.774;8.650;2023-03-23T17:55:16;14.00;99.90
22996;DHT22;11664;49.774;8.650;2023-03-23T17:57:42;14.00;99.90
22996;DHT22;11664;49.774;8.650;2023-03-23T18:00:08;14.00;99.90